Sequatchie, Tennessee
Current Conditions -  °F | °C
As of 8:53 PM on Friday 28 Nov 2014 (Local Time) from KCHA Reporting Station
Clear Clear  
Wind Chill: 34°   Ceiling: Unl
Heat Index: 34°   Visibility: 10mi
Dew Point: 25°   Wind: 3mph
Humidity: 70%   Direction: 190°S
Pressure: 30.27"   Gusts: NA
Location:  35.12°N, 85.59°W
Report Text: KCHA 290253Z 19003KT 10SM CLR 01/M04 A3027 RMK AO2 SLP253 T00111039 56007
Loading
Personal Weather Stations






























Interactive Weather Map New forecast layout! Learn more

10-Day Weather Forecast

Advertisements
Track Severe Weather on mobile